Zhetygen Airport

Jump to: basic info | weather | comments

Related pages: nearby airports | nearby navaids

Basic information (top)

Location: lon 43.733101, lat 77.119400, elev 1,638 ft / 499 m msl
Status: small_airport

Weather (top)

Current conditions for Almaty Airport 23nm (43km) S (rec'd 2014/08/30 18:00Z):

UAAA 301800Z VRB01MPS 9999 NSC 16/02 Q1013 R88/65D NOSIG

Airport forecast for Almaty Airport 23nm (43km) S (rec'd 2014/08/30 18:18Z):

TAF TAF UAAA 301700Z 3018/3118 VRB02MPS 9999 NSC TX31/3109Z TN11/3100Z 
      BECMG 3104/3105 04006MPS 
      BECMG 3114/3115 16005MPS

Latest comments (top)

No comments yet for Zhetygen Airport

More... (top)

See also NOTAMs and nearby airports and navaids, or visit the Zhetygen Airport page at the main OurAirports website..